Sterling, AK

10:21 AM AKDT on September 22, 2014 (GMT -0800)
Funny River | Change Station
CLOSE
Current Station
Personal Weather Station
Location: Soldotna, AK
Elevation: 208 ft
Nearby Weather Stations

Elev 208 ft 60.51 °N, 150.80 °W | Updated 10 seconds ago

Clear
Clear
37.9 °F
Feels Like 38 °F
N
0.0
Wind Variable Wind from SE
Gusts 0.0 mph

Today
High -- | Low -- °F
--% Chance of Precip.
Yesterday
High -- | Low -- °F
Precip. -- in
7:47 AM 8:02 PM
Waning Crescent, 2% visible
Pressure 29.59 in
Visibility 10.0 miles
Clouds Clear
Windchill 38 °F
Dew Point 36 °F
Humidity 92%
Rainfall 0.00 in
Snow Depth 5 in , 2 in , 1 in
UV 1 out of 12
Pollen Not available.
Air Quality Not available.
Flu Activity Not available.
METAR PASX 221816Z AUTO 00000KT 10SM CLR 03/01 A2959 RMK AO1

More Conditions Fewer Conditions

Pressure 29.59 in
Visibility 10.0 miles
Clouds Clear
Windchill 38 °F
Dew Point 36 °F
Humidity 92%
Rainfall 0.00 in
Snow Depth 5 in , 2 in , 1 in
UV 1 out of 12
Pollen Not available.
Air Quality Not available.
Flu Activity Not available.
METAR PASX 221816Z AUTO 00000KT 10SM CLR 03/01 A2959 RMK AO1

More Conditions Fewer Conditions

10-Day Weather Forecast

Almanac

Astronomy

Sep. 22, 2014 Rise Set
Actual Time 7:47 AM AKDT 8:02 PM AKDT
Civil Twilight 7:05 AM AKDT 8:44 PM AKDT
Nautical Twilight 6:14 AM AKDT 9:35 PM AKDT
Astronomical Twilight 5:18 AM AKDT 10:30 PM AKDT
Moon 6:11 AM AKDT 7:21 PM AKDT
Length of Visible Light 13h 39m
Length of Day
12h 14m
Tomorrow will be 5m 31s shorter.
Waning Crescent, 2% of the Moon is Illuminated
Today
Waning Crescent
Sep 24
New
Oct 1
First Quarter
Oct 8
Full
Oct 15
Last Quarter

Today's Extremes

State Highs State Lows

Community

WunderPhotos

Upload Photos

1,755,506 photos uploaded!

WunderBlogs® & News

By Dr. Jeff Masters
Director of Meteorology, Weather Underground
By Kari Strenfel
Meteorologist, Weather Underground
By Christopher C. Burt
Weather Historian, Weather Underground
September 22, 2014
September 22, 2014
September 22, 2014

Nearby

Snow Depth

Station Depth Elevation
MF Bradley River 5 in 2300 ft
Turnagain Pass 2 in 1880 ft
Fort Yukon 0 in 430 ft
Point Mackenzie 1 in 200 ft
Mcneil Canyon 1 in 1320 ft

Earthquake Activity

City Distance Mag. Time & Date
No recent earthquake activity has been reported nearby.
Minimum magnitude displayed is 2.5.

Coastal Water Temperatures

Place Temperature
No Stations Reporting

Nearby Weather Stations